Time;durP1;ratioP1;P1;durP2;ratioP2;P2;SDS_P1;SDS_P2;PMS_P1;PMS_P2;Temp;Humidity;BMP_temperature;BMP_pressure;BME280_temperature;BME280_humidity;BME280_pressure;Samples;Min_cycle;Max_cycle;Signal;HPM_P1;HPM_P2
2022/07/08 00:02:14;;;;;;;6.47;3.17;;;;;;;;;;6123570;23;20297;-88
2022/07/08 00:05:20;;;;;;;8.45;3.50;;;;;;;;;;6124385;23;20220;-88
2022/07/08 00:08:29;;;;;;;3.75;2.90;;;;;;;;;;6122762;23;20165;-89
2022/07/08 00:11:35;;;;;;;7.90;3.20;;;;;;;;;;6122279;23;20170;-90
2022/07/08 00:14:40;;;;;;;6.40;3.60;;;;;;;;;;6123138;23;20181;-88
2022/07/08 00:17:45;;;;;;;7.22;3.35;;;;;;;;;;6124741;23;20549;-88
2022/07/08 00:20:51;;;;;;;11.95;3.90;;;;;;;;;;6123585;23;20213;-88
2022/07/08 00:23:57;;;;;;;7.70;3.38;;;;;;;;;;6141572;23;20221;-89
2022/07/08 00:27:02;;;;;;;6.22;3.80;;;;;;;;;;6123786;23;20185;-90
2022/07/08 00:30:08;;;;;;;6.13;4.00;;;;;;;;;;6122600;23;20165;-90
2022/07/08 00:33:13;;;;;;;6.18;3.65;;;;;;;;;;6122712;23;20165;-90
2022/07/08 00:36:18;;;;;;;8.48;3.63;;;;;;;;;;6123694;23;20168;-89
2022/07/08 00:39:25;;;;;;;7.13;3.53;;;;;;;;;;6124489;23;20157;-88
2022/07/08 00:42:31;;;;;;;8.23;4.25;;;;;;;;;;6123616;23;20173;-89
2022/07/08 00:45:36;;;;;;;8.70;4.18;;;;;;;;;;6123477;23;20172;-91
2022/07/08 00:48:41;;;;;;;9.43;3.80;;;;;;;;;;6121222;23;20173;-90
2022/07/08 00:51:47;;;;;;;6.50;4.10;;;;;;;;;;6121271;23;20165;-88
2022/07/08 00:54:54;;;;;;;8.00;3.72;;;;;;;;;;6119414;23;20715;-88
2022/07/08 00:57:59;;;;;;;9.75;3.88;;;;;;;;;;6120695;23;20173;-89
2022/07/08 01:01:05;;;;;;;10.50;3.67;;;;;;;;;;6120172;23;20172;-89
2022/07/08 01:04:10;;;;;;;7.07;4.40;;;;;;;;;;6120199;23;20169;-89
2022/07/08 01:07:15;;;;;;;7.57;4.03;;;;;;;;;;6120713;23;20785;-87
2022/07/08 01:10:22;;;;;;;7.43;3.42;;;;;;;;;;6120241;23;20260;-88
2022/07/08 01:13:27;;;;;;;5.15;3.65;;;;;;;;;;6120659;23;20157;-89
2022/07/08 01:16:32;;;;;;;5.45;3.78;;;;;;;;;;6121238;23;20169;-89
2022/07/08 01:19:37;;;;;;;4.38;3.25;;;;;;;;;;6121387;23;20235;-89
2022/07/08 01:22:44;;;;;;;5.38;3.35;;;;;;;;;;6120261;23;20605;-90
2022/07/08 01:25:49;;;;;;;7.97;3.42;;;;;;;;;;6120392;23;20169;-89
2022/07/08 01:28:56;;;;;;;10.52;3.40;;;;;;;;;;6120208;23;20262;-89
2022/07/08 01:32:02;;;;;;;8.27;3.10;;;;;;;;;;6122439;23;20171;-89
2022/07/08 01:35:07;;;;;;;5.95;2.90;;;;;;;;;;6139397;23;20213;-89
2022/07/08 01:38:14;;;;;;;8.55;3.15;;;;;;;;;;6121990;23;20177;-88
2022/07/08 01:41:19;;;;;;;4.70;2.88;;;;;;;;;;6120857;23;20190;-89
2022/07/08 01:44:24;;;;;;;5.38;2.47;;;;;;;;;;6121610;23;20173;-88
2022/07/08 01:47:29;;;;;;;4.35;2.47;;;;;;;;;;6122309;23;20145;-88
2022/07/08 01:50:35;;;;;;;5.78;2.40;;;;;;;;;;6121852;23;20165;-89
2022/07/08 01:53:42;;;;;;;7.85;2.10;;;;;;;;;;6122830;23;20218;-87
2022/07/08 01:56:47;;;;;;;3.10;1.83;;;;;;;;;;6123512;23;20168;-88
2022/07/08 01:59:53;;;;;;;4.30;1.73;;;;;;;;;;6123915;23;20173;-88
2022/07/08 02:02:58;;;;;;;3.40;1.80;;;;;;;;;;6124447;23;20197;-89
2022/07/08 02:06:03;;;;;;;3.08;1.20;;;;;;;;;;6123834;23;20180;-89
2022/07/08 02:09:10;;;;;;;2.78;1.20;;;;;;;;;;6122543;23;20252;-88
2022/07/08 02:12:20;;;;;;;3.00;1.40;;;;;;;;;;6120925;23;20186;-89
2022/07/08 02:15:26;;;;;;;2.53;1.30;;;;;;;;;;6121662;23;20201;-89
2022/07/08 02:18:31;;;;;;;2.40;1.30;;;;;;;;;;6120531;23;20217;-90
2022/07/08 02:21:36;;;;;;;4.30;1.05;;;;;;;;;;6123251;23;20153;-89
2022/07/08 02:24:42;;;;;;;0.88;0.82;;;;;;;;;;6123449;23;20173;-89
2022/07/08 02:27:47;;;;;;;1.38;0.80;;;;;;;;;;6122359;23;20169;-89
2022/07/08 02:30:52;;;;;;;1.70;0.70;;;;;;;;;;6121946;23;20172;-88
2022/07/08 02:33:57;;;;;;;3.88;0.80;;;;;;;;;;6121820;23;20194;-87
2022/07/08 02:37:03;;;;;;;4.95;0.70;;;;;;;;;;6121950;23;20617;-89
2022/07/08 02:40:11;;;;;;;0.75;0.65;;;;;;;;;;6122822;23;20217;-90
2022/07/08 02:43:19;;;;;;;1.20;0.80;;;;;;;;;;6121311;23;20249;-90
2022/07/08 02:46:24;;;;;;;1.20;0.80;;;;;;;;;;6121853;23;20173;-89
2022/07/08 02:49:29;;;;;;;1.35;0.80;;;;;;;;;;6120909;23;20174;-90
2022/07/08 02:52:35;;;;;;;1.50;0.63;;;;;;;;;;6119099;23;20169;-91
2022/07/08 02:55:42;;;;;;;3.53;0.90;;;;;;;;;;6121915;23;20181;-89
2022/07/08 02:58:47;;;;;;;2.53;0.90;;;;;;;;;;6120926;23;20169;-90
2022/07/08 03:01:52;;;;;;;1.33;0.70;;;;;;;;;;6123633;23;20189;-89
2022/07/08 03:04:58;;;;;;;4.95;0.73;;;;;;;;;;6122128;23;20169;-89
2022/07/08 03:08:03;;;;;;;1.05;0.65;;;;;;;;;;6121520;23;20173;-89
2022/07/08 03:11:09;;;;;;;3.28;0.90;;;;;;;;;;6123868;23;20172;-89
2022/07/08 03:14:15;;;;;;;2.78;0.85;;;;;;;;;;6121473;23;20219;-89
2022/07/08 03:17:20;;;;;;;4.13;0.88;;;;;;;;;;6123933;23;20241;-90
2022/07/08 03:20:25;;;;;;;4.88;1.10;;;;;;;;;;6122759;23;20173;-89
2022/07/08 03:23:31;;;;;;;4.50;1.17;;;;;;;;;;6123500;23;20165;-90
2022/07/08 03:26:38;;;;;;;2.55;0.95;;;;;;;;;;6121577;23;20164;-89
2022/07/08 03:29:44;;;;;;;4.50;1.00;;;;;;;;;;6122484;23;20227;-89
2022/07/08 03:32:49;;;;;;;3.90;1.25;;;;;;;;;;6122410;23;20174;-88
2022/07/08 03:35:54;;;;;;;6.88;1.50;;;;;;;;;;6121906;23;20692;-89
2022/07/08 03:39:01;;;;;;;3.85;1.33;;;;;;;;;;6120484;23;20205;-88
2022/07/08 03:42:08;;;;;;;6.70;1.50;;;;;;;;;;6120218;23;20165;-89
2022/07/08 03:45:17;;;;;;;7.35;1.80;;;;;;;;;;6122137;23;20180;-89
2022/07/08 03:48:22;;;;;;;12.73;1.92;;;;;;;;;;6121364;23;20169;-89
2022/07/08 03:51:27;;;;;;;13.30;1.75;;;;;;;;;;6122006;23;20197;-89
2022/07/08 03:54:32;;;;;;;3.90;1.50;;;;;;;;;;6120438;23;20168;-88
2022/07/08 03:57:40;;;;;;;4.03;1.60;;;;;;;;;;6121853;23;20169;-88
2022/07/08 04:01:04;;;;;;;10.95;2.25;;;;;;;;;;6120058;23;20173;-89
2022/07/08 04:04:10;;;;;;;6.03;1.60;;;;;;;;;;6120733;23;20265;-88
2022/07/08 04:07:15;;;;;;;6.68;1.88;;;;;;;;;;6121182;23;20507;-89
2022/07/08 04:10:21;;;;;;;8.02;2.00;;;;;;;;;;6122751;23;20189;-88
2022/07/08 04:13:28;;;;;;;8.90;2.40;;;;;;;;;;6121592;23;20165;-89
2022/07/08 04:16:34;;;;;;;10.50;2.15;;;;;;;;;;6121022;23;20177;-89
2022/07/08 04:19:38;;;;;;;5.80;1.80;;;;;;;;;;6124651;23;20169;-89
2022/07/08 04:22:43;;;;;;;9.63;2.25;;;;;;;;;;6123494;23;20188;-89
2022/07/08 04:25:48;;;;;;;11.75;1.98;;;;;;;;;;6120877;23;20212;-88
2022/07/08 04:28:55;;;;;;;8.95;2.17;;;;;;;;;;6121854;23;20169;-89
2022/07/08 04:32:01;;;;;;;13.07;2.35;;;;;;;;;;6120167;23;20165;-87
2022/07/08 04:35:07;;;;;;;9.70;2.33;;;;;;;;;;6121718;23;20156;-88
2022/07/08 04:38:12;;;;;;;10.40;2.78;;;;;;;;;;6121128;23;20169;-90
2022/07/08 04:41:17;;;;;;;10.80;2.53;;;;;;;;;;6121157;23;20157;-89
2022/07/08 04:44:24;;;;;;;9.07;2.10;;;;;;;;;;6121400;23;20185;-88
2022/07/08 04:47:30;;;;;;;9.38;2.20;;;;;;;;;;6123270;23;20181;-87
2022/07/08 04:50:36;;;;;;;10.15;2.70;;;;;;;;;;6125536;23;20628;-88
2022/07/08 04:53:41;;;;;;;10.13;2.55;;;;;;;;;;6121380;23;20257;-88
2022/07/08 04:56:46;;;;;;;8.50;2.30;;;;;;;;;;6121455;23;20173;-90
2022/07/08 04:59:52;;;;;;;10.27;2.38;;;;;;;;;;6122725;23;20185;-88
2022/07/08 05:02:58;;;;;;;15.40;2.30;;;;;;;;;;6121814;23;20282;-88
2022/07/08 05:06:04;;;;;;;11.13;2.65;;;;;;;;;;6121960;23;20211;-88
2022/07/08 05:09:10;;;;;;;13.35;2.45;;;;;;;;;;6121718;23;20205;-88
2022/07/08 05:12:15;;;;;;;8.23;2.35;;;;;;;;;;6121866;23;20221;-88
2022/07/08 05:15:24;;;;;;;11.35;2.90;;;;;;;;;;6122654;23;20153;-89
2022/07/08 05:18:34;;;;;;;7.85;2.10;;;;;;;;;;6122104;23;20185;-88
2022/07/08 05:21:40;;;;;;;9.25;2.03;;;;;;;;;;6123651;23;20641;-88
2022/07/08 05:24:45;;;;;;;12.40;2.15;;;;;;;;;;6124543;23;20172;-88
2022/07/08 05:28:01;;;;;;;10.73;2.22;;;;;;;;;;6124532;23;20161;-89
2022/07/08 05:31:08;;;;;;;12.85;2.20;;;;;;;;;;6124731;23;20240;-89
2022/07/08 05:34:13;;;;;;;10.85;1.80;;;;;;;;;;6123020;23;20181;-91
2022/07/08 05:37:19;;;;;;;11.27;2.35;;;;;;;;;;6126735;23;20173;-89
2022/07/08 05:40:24;;;;;;;12.88;2.00;;;;;;;;;;6124778;23;20613;-88
2022/07/08 05:43:36;;;;;;;9.82;1.98;;;;;;;;;;6127538;23;20173;-89
2022/07/08 05:46:43;;;;;;;4.65;2.00;;;;;;;;;;6126640;23;20228;-90
2022/07/08 05:49:49;;;;;;;7.25;1.80;;;;;;;;;;6123839;23;20654;-90
2022/07/08 05:52:54;;;;;;;5.20;1.88;;;;;;;;;;6123690;23;20217;-89
2022/07/08 05:55:59;;;;;;;6.65;1.95;;;;;;;;;;6124638;23;20173;-91
2022/07/08 05:59:04;;;;;;;10.00;1.90;;;;;;;;;;6123709;23;20170;-88
2022/07/08 06:02:11;;;;;;;9.70;2.10;;;;;;;;;;6123435;23;20266;-88
2022/07/08 06:05:17;;;;;;;7.18;1.88;;;;;;;;;;6123842;23;20172;-88
2022/07/08 06:08:22;;;;;;;10.02;1.73;;;;;;;;;;6123062;23;20181;-90
2022/07/08 06:11:27;;;;;;;6.68;1.98;;;;;;;;;;6123974;23;20173;-90
2022/07/08 06:14:34;;;;;;;9.20;1.88;;;;;;;;;;6121887;23;20181;-89
2022/07/08 06:17:41;;;;;;;22.42;8.70;;;;;;;;;;6121061;23;20244;-89
2022/07/08 06:20:46;;;;;;;17.83;5.20;;;;;;;;;;6121018;23;20172;-90
2022/07/08 06:23:53;;;;;;;13.63;2.45;;;;;;;;;;6123514;23;20222;-89
2022/07/08 06:26:59;;;;;;;13.27;2.40;;;;;;;;;;6123254;23;20264;-90
2022/07/08 06:30:04;;;;;;;9.18;1.73;;;;;;;;;;6125474;23;20173;-91
2022/07/08 06:36:34;;;;;;;9.90;1.92;;;;;;;;;;6123796;23;20206;-90
2022/07/08 06:39:39;;;;;;;7.47;1.70;;;;;;;;;;6124554;23;20177;-92
2022/07/08 06:42:44;;;;;;;8.85;1.80;;;;;;;;;;6122607;23;20193;-90
2022/07/08 06:45:51;;;;;;;9.30;2.13;;;;;;;;;;6123414;23;20208;-91
2022/07/08 06:48:58;;;;;;;16.45;2.15;;;;;;;;;;6121270;23;20181;-89
2022/07/08 06:52:04;;;;;;;11.98;2.17;;;;;;;;;;6120312;23;20164;-90
2022/07/08 06:59:01;;;;;;;7.95;1.70;;;;;;;;;;6138873;23;20173;-91
2022/07/08 07:02:07;;;;;;;8.77;1.70;;;;;;;;;;6123144;23;20192;-91
2022/07/08 07:05:14;;;;;;;8.68;1.75;;;;;;;;;;6123162;23;20185;-90
2022/07/08 07:08:19;;;;;;;8.07;1.88;;;;;;;;;;6121744;23;20169;-89
2022/07/08 07:11:27;;;;;;;9.10;2.22;;;;;;;;;;6121940;23;20188;-89
2022/07/08 07:14:32;;;;;;;11.38;2.10;;;;;;;;;;6120977;23;20177;-89
2022/07/08 07:17:37;;;;;;;14.07;2.15;;;;;;;;;;6120902;23;20200;-89
2022/07/08 07:20:44;;;;;;;10.63;2.55;;;;;;;;;;6137385;23;20149;-90
2022/07/08 07:23:50;;;;;;;8.80;2.08;;;;;;;;;;6123582;23;20173;-90
2022/07/08 07:26:56;;;;;;;9.77;2.13;;;;;;;;;;6140760;23;20196;-92
2022/07/08 07:30:01;;;;;;;11.55;2.08;;;;;;;;;;6121316;23;20177;-89
2022/07/08 07:33:07;;;;;;;8.95;1.58;;;;;;;;;;6123815;23;20193;-90
2022/07/08 07:36:13;;;;;;;9.65;1.88;;;;;;;;;;6123538;23;20206;-91
2022/07/08 07:42:41;;;;;;;9.98;1.80;;;;;;;;;;6125127;23;20189;-89
2022/07/08 07:45:54;;;;;;;7.65;1.80;;;;;;;;;;6124192;23;20188;-90
2022/07/08 07:49:00;;;;;;;14.02;2.30;;;;;;;;;;6121701;23;20234;-89
2022/07/08 07:52:08;;;;;;;6.72;1.70;;;;;;;;;;6121442;23;20169;-89
2022/07/08 07:55:14;;;;;;;8.43;1.95;;;;;;;;;;6121999;23;20178;-89
2022/07/08 07:58:20;;;;;;;6.70;1.50;;;;;;;;;;6122471;23;20221;-91
2022/07/08 08:01:26;;;;;;;8.05;1.52;;;;;;;;;;6122212;23;20195;-90
2022/07/08 08:04:32;;;;;;;7.40;1.52;;;;;;;;;;6120772;23;20192;-88
2022/07/08 08:07:40;;;;;;;8.20;1.70;;;;;;;;;;6119994;23;20295;-89
2022/07/08 08:10:46;;;;;;;8.90;1.65;;;;;;;;;;6122061;23;20213;-90
2022/07/08 08:13:52;;;;;;;10.55;2.00;;;;;;;;;;6122771;23;20197;-91
2022/07/08 08:16:57;;;;;;;6.30;1.85;;;;;;;;;;6122221;23;20193;-90
2022/07/08 08:20:04;;;;;;;8.90;1.30;;;;;;;;;;6119484;23;20178;-90
2022/07/08 08:23:10;;;;;;;10.57;1.80;;;;;;;;;;6123138;23;20149;-89
2022/07/08 08:26:16;;;;;;;10.25;1.55;;;;;;;;;;6122801;23;20256;-91
2022/07/08 08:29:22;;;;;;;10.13;1.80;;;;;;;;;;6120321;23;20172;-92
2022/07/08 08:32:27;;;;;;;10.60;1.83;;;;;;;;;;6120100;23;20496;-90
2022/07/08 08:35:32;;;;;;;5.72;1.60;;;;;;;;;;6120329;23;20177;-90
2022/07/08 08:38:39;;;;;;;9.68;2.40;;;;;;;;;;6123154;23;20197;-89
2022/07/08 08:41:44;;;;;;;11.75;1.70;;;;;;;;;;6122179;23;20264;-88
2022/07/08 08:44:51;;;;;;;7.72;1.42;;;;;;;;;;6120454;23;20214;-91
2022/07/08 08:47:59;;;;;;;8.77;2.30;;;;;;;;;;6121545;23;20208;-89
2022/07/08 08:51:08;;;;;;;6.57;1.60;;;;;;;;;;6119639;23;20177;-90
2022/07/08 08:54:15;;;;;;;9.93;1.88;;;;;;;;;;6120706;23;20181;-91
2022/07/08 08:57:21;;;;;;;9.38;2.33;;;;;;;;;;6119346;23;20176;-88
2022/07/08 09:00:26;;;;;;;7.15;1.67;;;;;;;;;;6120262;23;20177;-91
2022/07/08 09:03:36;;;;;;;8.95;1.83;;;;;;;;;;6119284;23;20205;-89
2022/07/08 09:06:41;;;;;;;6.40;1.50;;;;;;;;;;6121109;23;20201;-89
2022/07/08 09:09:50;;;;;;;6.68;1.70;;;;;;;;;;6120988;23;20217;-90
2022/07/08 09:13:02;;;;;;;7.72;1.92;;;;;;;;;;6120824;23;20169;-89
2022/07/08 09:16:08;;;;;;;7.88;1.52;;;;;;;;;;6122679;23;20169;-89
2022/07/08 09:19:14;;;;;;;10.02;1.83;;;;;;;;;;6122124;23;20185;-90
2022/07/08 09:22:22;;;;;;;7.35;1.60;;;;;;;;;;6122499;23;20192;-91
2022/07/08 09:25:28;;;;;;;6.55;1.65;;;;;;;;;;6123302;23;20206;-90
2022/07/08 09:28:34;;;;;;;7.15;1.40;;;;;;;;;;6122143;23;20165;-90
2022/07/08 09:31:39;;;;;;;9.70;2.42;;;;;;;;;;6122342;23;20171;-89
2022/07/08 09:34:44;;;;;;;11.77;2.10;;;;;;;;;;6122228;23;20617;-89
2022/07/08 09:37:51;;;;;;;4.50;1.40;;;;;;;;;;6122962;23;20169;-91
2022/07/08 09:40:58;;;;;;;6.65;1.92;;;;;;;;;;6120094;23;20249;-91
2022/07/08 09:44:36;;;;;;;11.07;2.10;;;;;;;;;;6121604;23;20189;-89
2022/07/08 09:47:40;;;;;;;11.98;1.73;;;;;;;;;;6120506;23;20197;-89
2022/07/08 09:50:46;;;;;;;9.65;1.92;;;;;;;;;;6122922;23;20189;-90
2022/07/08 09:53:51;;;;;;;8.25;1.95;;;;;;;;;;6123465;23;20214;-90
2022/07/08 09:57:03;;;;;;;5.35;1.90;;;;;;;;;;6120262;23;20218;-92
2022/07/08 10:00:09;;;;;;;10.48;2.40;;;;;;;;;;6121430;23;20174;-90
2022/07/08 10:03:18;;;;;;;5.55;1.65;;;;;;;;;;6137303;23;20208;-90
2022/07/08 10:06:28;;;;;;;7.13;1.77;;;;;;;;;;6122861;23;20172;-90
2022/07/08 10:09:34;;;;;;;11.38;2.20;;;;;;;;;;6120755;23;20313;-90
2022/07/08 10:12:40;;;;;;;6.55;1.52;;;;;;;;;;6121448;23;20172;-88
2022/07/08 10:15:46;;;;;;;10.98;2.30;;;;;;;;;;6122089;23;20185;-90
2022/07/08 10:18:53;;;;;;;11.10;2.28;;;;;;;;;;6119064;23;20225;-90
2022/07/08 10:21:59;;;;;;;4.90;1.60;;;;;;;;;;6119071;23;20182;-91
2022/07/08 10:25:05;;;;;;;6.90;1.88;;;;;;;;;;6118453;23;20173;-89
2022/07/08 10:28:16;;;;;;;7.03;1.95;;;;;;;;;;6118851;23;20213;-89
2022/07/08 10:31:22;;;;;;;9.60;2.20;;;;;;;;;;6122707;23;20242;-90
2022/07/08 10:34:31;;;;;;;5.80;1.80;;;;;;;;;;6123052;23;20482;-90
2022/07/08 10:38:00;;;;;;;11.85;2.03;;;;;;;;;;6123946;23;20220;-92
2022/07/08 10:41:08;;;;;;;15.52;3.30;;;;;;;;;;6122941;23;20173;-92
2022/07/08 10:44:52;;;;;;;10.10;1.75;;;;;;;;;;6120861;23;20157;-89
2022/07/08 10:48:09;;;;;;;11.07;2.00;;;;;;;;;;6121851;23;20633;-92
2022/07/08 10:51:29;;;;;;;9.38;2.55;;;;;;;;;;6121104;23;20169;-90
2022/07/08 10:54:38;;;;;;;18.38;3.20;;;;;;;;;;6119196;23;20209;-86
2022/07/08 10:57:54;;;;;;;6.13;1.70;;;;;;;;;;6122232;23;20189;-90
2022/07/08 11:01:21;;;;;;;9.82;1.98;;;;;;;;;;6122369;23;20290;-91
2022/07/08 11:04:33;;;;;;;11.65;2.15;;;;;;;;;;6122892;23;20189;-90
2022/07/08 11:07:38;;;;;;;9.90;1.90;;;;;;;;;;6120105;23;20180;-91
2022/07/08 11:10:45;;;;;;;6.68;1.70;;;;;;;;;;6122461;23;20182;-92
2022/07/08 11:13:50;;;;;;;9.23;2.65;;;;;;;;;;6122023;23;20213;-89
2022/07/08 11:16:56;;;;;;;10.63;2.85;;;;;;;;;;6122318;23;20193;-91
2022/07/08 11:20:03;;;;;;;6.00;2.47;;;;;;;;;;6119989;23;20277;-90
2022/07/08 11:23:08;;;;;;;7.20;2.45;;;;;;;;;;6123236;23;20172;-91
2022/07/08 11:26:20;;;;;;;6.35;1.92;;;;;;;;;;6121814;23;20282;-90
2022/07/08 11:29:25;;;;;;;7.68;2.30;;;;;;;;;;6123406;23;20178;-89
2022/07/08 11:32:31;;;;;;;7.25;1.90;;;;;;;;;;6123553;23;20181;-90
2022/07/08 11:35:41;;;;;;;11.93;2.08;;;;;;;;;;6121507;23;20621;-91
2022/07/08 11:38:47;;;;;;;6.47;1.67;;;;;;;;;;6119877;23;20230;-90
2022/07/08 11:41:56;;;;;;;20.63;2.88;;;;;;;;;;6120239;23;20168;-89
2022/07/08 11:45:06;;;;;;;29.65;8.45;;;;;;;;;;6120873;23;20173;-89
2022/07/08 11:48:11;;;;;;;13.68;2.50;;;;;;;;;;6119867;23;20324;-90
2022/07/08 11:54:59;;;;;;;6.20;1.33;;;;;;;;;;6119447;23;20213;-92
2022/07/08 11:58:04;;;;;;;6.45;2.00;;;;;;;;;;6123971;23;20180;-91
2022/07/08 12:01:10;;;;;;;9.35;1.73;;;;;;;;;;6121125;23;20280;-92
2022/07/08 12:04:16;;;;;;;7.28;1.65;;;;;;;;;;6121662;23;20185;-91
2022/07/08 12:07:22;;;;;;;11.25;1.80;;;;;;;;;;6122856;23;20249;-89
2022/07/08 12:10:32;;;;;;;7.45;1.70;;;;;;;;;;6122237;23;20490;-90
2022/07/08 12:13:44;;;;;;;7.90;2.20;;;;;;;;;;6126688;23;20160;-90
2022/07/08 12:16:50;;;;;;;7.75;2.00;;;;;;;;;;6124388;23;20169;-89
2022/07/08 12:19:56;;;;;;;7.85;2.05;;;;;;;;;;6123550;23;20549;-90
2022/07/08 12:23:12;;;;;;;8.60;1.90;;;;;;;;;;6124171;23;20208;-90
2022/07/08 12:26:19;;;;;;;9.35;1.90;;;;;;;;;;6121863;23;20170;-89
2022/07/08 12:29:24;;;;;;;6.20;1.98;;;;;;;;;;6120873;23;20302;-90
2022/07/08 12:32:39;;;;;;;8.02;1.80;;;;;;;;;;6120711;23;20284;-89
2022/07/08 12:35:44;;;;;;;8.93;1.95;;;;;;;;;;6121627;23;20451;-90
2022/07/08 12:38:50;;;;;;;8.52;2.60;;;;;;;;;;6122439;23;20176;-90
2022/07/08 12:42:01;;;;;;;5.60;1.77;;;;;;;;;;6119601;23;20492;-92
2022/07/08 12:45:15;;;;;;;7.40;1.60;;;;;;;;;;6124200;23;20285;-91
2022/07/08 12:48:20;;;;;;;4.25;1.42;;;;;;;;;;6123194;23;20232;-91
2022/07/08 12:51:26;;;;;;;13.00;2.00;;;;;;;;;;6124079;23;20166;-89
2022/07/08 12:54:34;;;;;;;6.75;1.60;;;;;;;;;;6121234;23;20209;-89
2022/07/08 12:57:42;;;;;;;7.80;1.83;;;;;;;;;;6121067;23;20177;-91
2022/07/08 13:00:48;;;;;;;9.63;1.65;;;;;;;;;;6122483;23;20598;-89
2022/07/08 13:03:53;;;;;;;5.28;1.60;;;;;;;;;;6120911;23;20241;-90
2022/07/08 13:06:59;;;;;;;5.80;1.42;;;;;;;;;;6120301;23;20157;-91
2022/07/08 13:10:05;;;;;;;9.85;1.95;;;;;;;;;;6119692;23;20209;-90
2022/07/08 13:13:12;;;;;;;7.80;1.55;;;;;;;;;;6122195;23;20181;-90
2022/07/08 13:16:17;;;;;;;11.25;1.77;;;;;;;;;;6119455;23;20169;-91
2022/07/08 13:19:22;;;;;;;9.85;1.55;;;;;;;;;;6119671;23;20157;-91
2022/07/08 13:22:28;;;;;;;14.35;1.85;;;;;;;;;;6120930;23;20164;-89
2022/07/08 13:25:33;;;;;;;7.05;1.75;;;;;;;;;;6119905;23;20177;-89
2022/07/08 13:28:40;;;;;;;6.07;1.52;;;;;;;;;;6120910;23;20213;-89
2022/07/08 13:31:45;;;;;;;6.25;1.40;;;;;;;;;;6121453;23;20222;-90
2022/07/08 13:34:50;;;;;;;6.15;1.52;;;;;;;;;;6121855;23;20217;-91
2022/07/08 13:37:57;;;;;;;4.82;1.70;;;;;;;;;;6122618;23;20287;-90
2022/07/08 13:41:02;;;;;;;5.55;1.65;;;;;;;;;;6122058;23;20202;-90
2022/07/08 13:44:08;;;;;;;7.78;1.70;;;;;;;;;;6120591;23;20165;-90
2022/07/08 13:47:13;;;;;;;6.65;1.65;;;;;;;;;;6121378;23;20305;-89
2022/07/08 13:50:19;;;;;;;5.47;1.42;;;;;;;;;;6119985;23;20172;-89
2022/07/08 13:53:24;;;;;;;8.00;1.63;;;;;;;;;;6123915;23;20221;-92
2022/07/08 13:56:29;;;;;;;6.80;1.98;;;;;;;;;;6122380;23;20562;-90
2022/07/08 13:59:37;;;;;;;7.97;1.70;;;;;;;;;;6119285;23;20174;-91
2022/07/08 14:02:43;;;;;;;5.78;1.50;;;;;;;;;;6121568;23;20200;-90
2022/07/08 14:05:48;;;;;;;9.75;1.70;;;;;;;;;;6121529;23;20165;-91
2022/07/08 14:08:57;;;;;;;4.03;1.75;;;;;;;;;;6123085;23;20196;-89
2022/07/08 14:12:04;;;;;;;7.90;1.55;;;;;;;;;;6123585;23;20173;-91
2022/07/08 14:15:11;;;;;;;13.07;1.95;;;;;;;;;;6123775;23;20174;-91
2022/07/08 14:18:16;;;;;;;7.50;1.77;;;;;;;;;;6123403;23;20159;-91
2022/07/08 14:21:22;;;;;;;7.72;1.70;;;;;;;;;;6124121;23;20169;-90
2022/07/08 14:24:27;;;;;;;4.00;1.30;;;;;;;;;;6123844;23;20177;-89
2022/07/08 14:27:33;;;;;;;7.30;1.58;;;;;;;;;;6123251;23;20169;-90
2022/07/08 14:30:40;;;;;;;7.10;1.30;;;;;;;;;;6124305;23;20194;-90
2022/07/08 14:33:45;;;;;;;5.32;1.85;;;;;;;;;;6123846;23;20168;-90
2022/07/08 14:36:51;;;;;;;7.60;1.50;;;;;;;;;;6123981;23;20168;-92
2022/07/08 14:39:58;;;;;;;11.82;1.90;;;;;;;;;;6128222;23;20278;-90
2022/07/08 14:43:10;;;;;;;5.57;1.77;;;;;;;;;;6125922;23;20161;-90
2022/07/08 14:46:17;;;;;;;7.18;1.48;;;;;;;;;;6124140;23;20193;-91
2022/07/08 14:49:24;;;;;;;6.78;1.55;;;;;;;;;;6121224;23;20210;-89
2022/07/08 14:52:31;;;;;;;6.72;1.90;;;;;;;;;;6121802;23;20194;-90
2022/07/08 14:55:39;;;;;;;6.57;1.40;;;;;;;;;;6122405;23;20153;-92
2022/07/08 14:58:50;;;;;;;5.15;1.42;;;;;;;;;;6143643;23;20164;-91
2022/07/08 15:01:56;;;;;;;6.53;1.80;;;;;;;;;;6121150;23;20216;-91
2022/07/08 15:05:02;;;;;;;6.13;1.58;;;;;;;;;;6120296;23;20249;-90
2022/07/08 15:08:07;;;;;;;7.38;1.70;;;;;;;;;;6121950;23;20336;-89
2022/07/08 15:11:16;;;;;;;5.75;1.40;;;;;;;;;;6121915;23;20169;-89
2022/07/08 15:14:21;;;;;;;6.70;1.38;;;;;;;;;;6122876;23;20176;-91
2022/07/08 15:17:28;;;;;;;5.32;1.55;;;;;;;;;;6121638;23;20169;-90
2022/07/08 15:20:38;;;;;;;8.02;1.67;;;;;;;;;;6124417;23;20173;-92
2022/07/08 15:23:44;;;;;;;4.05;1.45;;;;;;;;;;6122980;23;20168;-91
2022/07/08 15:26:54;;;;;;;7.68;1.40;;;;;;;;;;6123860;23;20160;-91
2022/07/08 15:29:59;;;;;;;6.95;1.58;;;;;;;;;;6122269;23;20177;-88
2022/07/08 15:33:06;;;;;;;7.47;1.30;;;;;;;;;;6120828;23;20210;-90
2022/07/08 15:36:12;;;;;;;4.13;1.60;;;;;;;;;;6125103;23;20169;-90
2022/07/08 15:39:27;;;;;;;3.85;1.30;;;;;;;;;;6122199;23;20174;-90
2022/07/08 15:42:33;;;;;;;3.58;1.50;;;;;;;;;;6120977;23;20617;-90
2022/07/08 15:49:28;;;;;;;7.68;1.80;;;;;;;;;;6124695;23;20267;-92
2022/07/08 15:52:34;;;;;;;6.95;1.48;;;;;;;;;;6122695;23;20185;-90
2022/07/08 15:55:39;;;;;;;8.02;1.40;;;;;;;;;;6122831;23;20266;-89
2022/07/08 15:58:44;;;;;;;10.02;1.70;;;;;;;;;;6121462;23;20197;-88
2022/07/08 16:01:49;;;;;;;7.82;3.88;;;;;;;;;;6120425;23;20172;-92
2022/07/08 16:04:56;;;;;;;4.10;1.33;;;;;;;;;;6119555;23;20614;-92
2022/07/08 16:08:04;;;;;;;13.93;4.43;;;;;;;;;;6119681;23;20300;-90
2022/07/08 16:11:10;;;;;;;9.52;2.03;;;;;;;;;;6120028;23;20161;-91
2022/07/08 16:14:18;;;;;;;6.70;1.95;;;;;;;;;;6120765;23;20169;-89
2022/07/08 16:17:24;;;;;;;4.03;1.15;;;;;;;;;;6121156;23;20197;-91
2022/07/08 16:20:31;;;;;;;6.00;1.25;;;;;;;;;;6120713;23;20172;-89
2022/07/08 16:23:36;;;;;;;6.32;1.60;;;;;;;;;;6120339;23;20169;-90
2022/07/08 16:26:41;;;;;;;5.57;1.50;;;;;;;;;;6119794;23;20653;-89
2022/07/08 16:29:46;;;;;;;5.22;1.60;;;;;;;;;;6120754;23;20196;-91
